createdAt,value
2019-02-25T00:00:49.487Z,26.30
2019-02-25T00:03:20.606Z,24.83
2019-02-25T00:05:49.847Z,25.00
2019-02-25T00:08:19.266Z,27.13
2019-02-25T00:10:53.507Z,25.43
2019-02-25T00:13:22.966Z,27.07
2019-02-25T00:15:52.206Z,23.97
2019-02-25T00:18:21.230Z,24.73
2019-02-25T00:20:52.326Z,21.40
2019-02-25T00:23:21.627Z,22.10
2019-02-25T00:25:53.066Z,20.27
2019-02-25T00:28:22.367Z,22.93
2019-02-25T00:31:00.290Z,17.50
2019-02-25T00:33:27.226Z,17.87
2019-02-25T00:35:56.887Z,21.20
2019-02-25T00:38:26.009Z,19.00
2019-02-25T00:40:55.465Z,17.13
2019-02-25T00:43:24.864Z,20.53
2019-02-25T00:45:54.326Z,22.20
2019-02-25T00:48:23.403Z,21.57
2019-02-25T00:50:52.604Z,20.73
2019-02-25T00:53:24.603Z,21.43
2019-02-25T00:55:54.008Z,19.00
2019-02-25T00:58:23.724Z,22.00
2019-02-25T01:00:53.270Z,19.70
2019-02-25T01:03:26.143Z,19.80
2019-02-25T01:05:56.543Z,16.47
2019-02-25T01:08:26.003Z,19.40
2019-02-25T01:10:55.143Z,17.37
2019-02-25T01:13:24.564Z,16.03
2019-02-25T01:15:53.984Z,17.13
2019-02-25T01:18:23.631Z,14.27
2019-02-25T01:20:52.690Z,15.23
2019-02-25T01:23:21.704Z,15.03
2019-02-25T01:25:51.224Z,14.90
2019-02-25T01:28:20.564Z,15.27
2019-02-25T01:30:49.984Z,15.97
2019-02-25T01:33:19.194Z,14.17
2019-02-25T01:35:48.489Z,15.30
2019-02-25T01:38:17.984Z,16.33
2019-02-25T01:40:47.264Z,15.80
2019-02-25T01:43:16.804Z,14.23
2019-02-25T01:45:46.372Z,17.77
2019-02-25T01:48:15.684Z,16.90
2019-02-25T01:50:44.863Z,15.50
2019-02-25T01:53:14.263Z,15.57
2019-02-25T01:55:46.221Z,17.70
2019-02-25T01:58:14.489Z,16.50
2019-02-25T02:00:43.593Z,16.60
2019-02-25T02:03:12.730Z,18.97
2019-02-25T02:05:42.213Z,17.30
2019-02-25T02:08:11.212Z,17.03
2019-02-25T02:10:40.203Z,17.80
2019-02-25T02:13:14.148Z,20.07
2019-02-25T02:15:39.964Z,16.73
2019-02-25T02:18:09.124Z,15.77
2019-02-25T02:20:38.805Z,18.63
2019-02-25T02:23:07.724Z,17.57
2019-02-25T02:25:39.873Z,19.53
2019-02-25T02:28:08.773Z,16.80
2019-02-25T02:30:37.859Z,16.97
2019-02-25T02:33:06.969Z,18.67
2019-02-25T02:35:35.863Z,18.33
2019-02-25T02:38:04.924Z,18.97
2019-02-25T02:40:34.250Z,15.33
2019-02-25T02:43:03.483Z,18.27
2019-02-25T02:45:47.652Z,20.83
2019-02-25T02:48:20.303Z,19.03
2019-02-25T02:50:49.664Z,16.87
2019-02-25T02:53:18.905Z,19.93
2019-02-25T02:55:48.205Z,17.70
2019-02-25T02:58:17.539Z,16.53
2019-02-25T03:00:46.874Z,17.77
2019-02-25T03:03:15.985Z,17.53
2019-02-25T03:05:47.965Z,15.83
2019-02-25T03:08:17.408Z,16.77
2019-02-25T03:10:46.428Z,16.93
2019-02-25T03:13:15.608Z,19.30
2019-02-25T03:15:45.026Z,19.97
2019-02-25T03:18:14.486Z,19.27
2019-02-25T03:20:43.690Z,17.27
2019-02-25T03:23:12.785Z,16.73
2019-02-25T03:25:41.769Z,17.27
2019-02-25T03:28:12.405Z,18.67
2019-02-25T03:30:42.691Z,19.70
2019-02-25T03:33:11.846Z,17.07
2019-02-25T03:35:40.846Z,17.13
2019-02-25T03:38:10.046Z,16.37
2019-02-25T03:40:39.126Z,18.83
2019-02-25T03:43:08.165Z,14.37
2019-02-25T03:45:37.306Z,16.23
2019-02-25T03:48:06.668Z,19.70
2019-02-25T03:50:35.825Z,15.07
2019-02-25T03:53:04.785Z,15.00
2019-02-25T03:55:34.472Z,14.87
2019-02-25T03:58:04.245Z,20.00
2019-02-25T04:00:33.715Z,15.77
2019-02-25T04:03:03.370Z,15.33
2019-02-25T04:05:32.550Z,16.30
2019-02-25T04:08:02.978Z,16.33
2019-02-25T04:10:32.033Z,18.93
2019-02-25T04:13:03.169Z,17.70
2019-02-25T04:15:39.924Z,15.90
2019-02-25T04:18:09.065Z,18.10
2019-02-25T04:20:38.444Z,17.03
2019-02-25T04:23:08.243Z,20.80
2019-02-25T04:25:37.443Z,15.27
2019-02-25T04:28:07.844Z,17.57
2019-02-25T04:30:36.886Z,21.97
2019-02-25T04:33:06.224Z,21.43
2019-02-25T04:35:35.782Z,21.67
2019-02-25T04:38:04.863Z,20.13
2019-02-25T04:40:34.343Z,20.73
2019-02-25T04:43:05.644Z,19.77
2019-02-25T04:45:35.284Z,20.37
2019-02-25T04:48:04.525Z,18.23
2019-02-25T04:50:34.004Z,20.53
2019-02-25T04:53:03.151Z,19.63
2019-02-25T04:55:33.846Z,18.27
2019-02-25T04:58:03.285Z,19.73
2019-02-25T05:00:32.188Z,18.80
2019-02-25T05:03:01.485Z,18.77
2019-02-25T05:05:30.584Z,19.67
2019-02-25T05:08:00.086Z,22.37
2019-02-25T05:10:29.514Z,19.67
2019-02-25T05:13:00.187Z,19.50
2019-02-25T05:15:31.329Z,22.30
2019-02-25T05:18:00.724Z,18.97
2019-02-25T05:20:35.923Z,17.00
2019-02-25T05:23:05.725Z,22.93
2019-02-25T05:25:37.379Z,19.53
2019-02-25T05:28:07.765Z,17.57
2019-02-25T05:30:37.217Z,16.27
2019-02-25T05:33:06.965Z,17.60
2019-02-25T05:35:35.969Z,20.00
2019-02-25T05:38:07.445Z,18.57
2019-02-25T05:40:37.185Z,18.60
2019-02-25T05:43:06.660Z,17.67
2019-02-25T05:45:37.502Z,16.73
2019-02-25T05:48:07.083Z,20.10
2019-02-25T05:50:36.823Z,18.80
2019-02-25T05:53:06.325Z,17.33
2019-02-25T05:55:35.669Z,20.30
2019-02-25T05:58:04.943Z,19.47
2019-02-25T06:00:35.154Z,18.93
2019-02-25T06:03:04.397Z,18.93
2019-02-25T06:05:35.110Z,17.23
2019-02-25T06:08:04.284Z,17.80
2019-02-25T06:10:33.248Z,18.80
2019-02-25T06:13:02.544Z,15.90
2019-02-25T06:15:31.744Z,14.83
2019-02-25T06:18:00.804Z,16.60
2019-02-25T06:20:30.164Z,17.33
2019-02-25T06:22:59.283Z,19.13
2019-02-25T06:25:30.106Z,16.80
2019-02-25T06:27:59.113Z,16.97
2019-02-25T06:30:27.975Z,16.10
2019-02-25T06:32:56.933Z,13.47
2019-02-25T06:35:25.849Z,19.07
2019-02-25T06:37:54.833Z,17.33
2019-02-25T06:40:23.741Z,17.83
2019-02-25T06:42:52.823Z,20.90
2019-02-25T06:45:36.873Z,16.33
2019-02-25T06:48:06.214Z,19.43
2019-02-25T06:50:35.534Z,21.30
2019-02-25T06:53:04.671Z,19.20
2019-02-25T06:55:33.703Z,19.80
2019-02-25T06:58:02.963Z,19.47
2019-02-25T07:00:31.898Z,17.07
2019-02-25T07:03:00.824Z,17.23
2019-02-25T07:05:34.064Z,22.23
2019-02-25T07:11:25.005Z,21.13
2019-02-25T07:14:23.763Z,19.40
2019-02-25T07:16:57.423Z,16.10
2019-02-25T07:19:46.724Z,18.57
2019-02-25T07:22:18.904Z,28.80
2019-02-25T07:25:09.083Z,17.47
2019-02-25T07:27:39.603Z,18.20
2019-02-25T07:30:22.143Z,15.30
2019-02-25T07:32:52.884Z,16.03
2019-02-25T07:35:29.725Z,20.13
2019-02-25T07:38:06.750Z,19.37
2019-02-25T07:40:52.765Z,18.83
2019-02-25T07:43:40.083Z,18.77
2019-02-25T07:46:12.406Z,18.10
2019-02-25T07:48:43.064Z,18.10
2019-02-25T07:51:16.864Z,19.70
2019-02-25T07:54:06.741Z,20.40
2019-02-25T07:56:51.504Z,23.13
2019-02-25T08:02:30.095Z,22.43
2019-02-25T08:05:03.310Z,19.37
2019-02-25T08:07:36.990Z,19.97
2019-02-25T08:10:28.949Z,17.73
2019-02-25T08:13:02.530Z,16.87
2019-02-25T08:15:45.289Z,17.77
2019-02-25T08:18:39.149Z,16.57
2019-02-25T08:21:12.950Z,15.87
2019-02-25T08:23:43.809Z,14.97
2019-02-25T08:26:14.582Z,14.17
2019-02-25T08:28:51.130Z,14.43
2019-02-25T08:31:27.789Z,14.20
2019-02-25T08:34:02.649Z,14.73
2019-02-25T08:37:02.151Z,17.70
2019-02-25T08:39:26.129Z,15.13
2019-02-25T08:41:59.746Z,16.60
2019-02-25T08:44:30.444Z,19.70
2019-02-25T08:47:01.203Z,20.47
2019-02-25T08:49:32.145Z,18.77
2019-02-25T08:52:04.024Z,17.53
2019-02-25T08:54:33.039Z,16.20
2019-02-25T08:57:04.347Z,14.53
2019-02-25T08:59:33.428Z,20.00
2019-02-25T09:02:07.525Z,17.57
2019-02-25T09:04:49.459Z,18.40
2019-02-25T09:07:18.950Z,14.57
2019-02-25T09:09:50.926Z,19.10
2019-02-25T09:12:19.947Z,19.93
2019-02-25T09:14:49.686Z,11.73
2019-02-25T09:17:18.646Z,12.90
2019-02-25T09:19:49.207Z,12.93
2019-02-25T09:22:18.413Z,11.93
2019-02-25T09:24:47.763Z,15.90
2019-02-25T09:27:20.004Z,18.17
2019-02-25T09:29:49.205Z,20.90
2019-02-25T09:32:19.073Z,14.70
2019-02-25T09:34:49.848Z,16.23
2019-02-25T09:37:19.135Z,15.80
2019-02-25T09:39:48.231Z,18.20
2019-02-25T09:42:24.652Z,14.37
2019-02-25T09:44:53.770Z,13.37
2019-02-25T09:47:23.090Z,15.37
2019-02-25T09:49:53.529Z,15.73
2019-02-25T09:52:22.724Z,17.10
2019-02-25T09:54:51.704Z,19.27
2019-02-25T09:57:34.043Z,16.57
2019-02-25T10:00:02.957Z,17.57
2019-02-25T10:02:31.979Z,14.40
2019-02-25T10:05:02.390Z,18.73
2019-02-25T10:07:31.527Z,16.77
2019-02-25T10:10:00.937Z,14.47
2019-02-25T10:12:29.996Z,11.47
2019-02-25T10:14:59.084Z,14.37
2019-02-25T10:17:28.229Z,14.47
2019-02-25T10:19:57.506Z,13.10
2019-02-25T10:22:26.626Z,12.60
2019-02-25T10:24:56.110Z,13.47
2019-02-25T10:27:25.289Z,14.97
2019-02-25T10:29:54.528Z,13.23
2019-02-25T10:32:25.443Z,13.40
2019-02-25T10:34:54.465Z,15.17
2019-02-25T10:37:25.028Z,13.80
2019-02-25T10:39:54.083Z,13.80
2019-02-25T10:42:23.044Z,16.80
2019-02-25T10:44:52.145Z,14.50
2019-02-25T10:47:31.584Z,13.60
2019-02-25T10:50:03.133Z,15.07
2019-02-25T10:52:32.086Z,17.50
2019-02-25T10:55:01.325Z,18.27
2019-02-25T10:57:31.450Z,15.93
2019-02-25T11:00:02.797Z,13.17
2019-02-25T11:02:31.932Z,19.27
2019-02-25T11:05:03.395Z,14.00
2019-02-25T11:07:34.749Z,15.17
2019-02-25T11:10:05.905Z,13.00
2019-02-25T11:12:35.286Z,14.30
2019-02-25T11:15:07.403Z,11.37
2019-02-25T11:17:37.703Z,12.53
2019-02-25T11:20:14.804Z,14.57
2019-02-25T11:22:46.005Z,14.73
2019-02-25T11:25:16.564Z,14.73
2019-02-25T11:27:46.004Z,21.27
2019-02-25T11:30:21.564Z,14.80
2019-02-25T11:32:51.695Z,14.17
2019-02-25T11:35:21.364Z,13.10
2019-02-25T11:37:54.834Z,11.20
2019-02-25T11:40:26.113Z,13.53
2019-02-25T11:42:55.343Z,13.60
2019-02-25T11:45:27.694Z,15.13
2019-02-25T11:47:56.927Z,15.27
2019-02-25T11:50:26.004Z,11.23
2019-02-25T11:52:55.327Z,10.87
2019-02-25T11:55:25.147Z,19.03
2019-02-25T11:57:54.804Z,14.67
2019-02-25T12:00:27.855Z,11.87
2019-02-25T12:02:57.034Z,11.93
2019-02-25T12:05:26.108Z,11.53
2019-02-25T12:08:02.000Z,12.43
2019-02-25T12:10:31.027Z,12.97
2019-02-25T12:12:59.963Z,11.10
2019-02-25T12:15:32.154Z,11.90
2019-02-25T12:18:01.485Z,11.20
2019-02-25T12:20:30.807Z,10.83
2019-02-25T12:23:01.531Z,11.60
2019-02-25T12:25:31.472Z,14.20
2019-02-25T12:28:00.433Z,10.63
2019-02-25T12:30:29.972Z,11.73
2019-02-25T12:32:59.524Z,11.87
2019-02-25T12:35:28.686Z,9.73
2019-02-25T12:37:58.084Z,11.37
2019-02-25T12:40:27.607Z,11.57
2019-02-25T12:42:57.027Z,10.43
2019-02-25T12:45:26.025Z,10.60
2019-02-25T12:47:58.464Z,12.77
2019-02-25T12:50:27.923Z,9.70
2019-02-25T12:52:57.023Z,9.70
2019-02-25T12:55:26.163Z,10.20
2019-02-25T12:57:55.284Z,10.03
2019-02-25T13:00:27.287Z,10.57
2019-02-25T13:02:56.910Z,11.70
2019-02-25T13:05:26.809Z,12.07
2019-02-25T13:07:56.169Z,10.23
2019-02-25T13:10:25.650Z,9.80
2019-02-25T13:12:58.665Z,9.53
2019-02-25T13:15:27.724Z,12.37
2019-02-25T13:17:56.946Z,10.47
2019-02-25T13:20:26.323Z,9.13
2019-02-25T13:22:55.305Z,9.27
2019-02-25T13:25:31.631Z,11.63
2019-02-25T13:28:02.092Z,14.10
2019-02-25T13:30:31.404Z,7.60
2019-02-25T13:33:00.764Z,12.10
2019-02-25T13:35:30.266Z,10.50
2019-02-25T13:37:59.504Z,8.70
2019-02-25T13:40:29.406Z,7.73
2019-02-25T13:43:01.567Z,8.20
2019-02-25T13:45:30.824Z,8.53
2019-02-25T13:48:00.283Z,8.47
2019-02-25T13:50:29.928Z,10.80
2019-02-25T13:52:59.608Z,10.03
2019-02-25T13:55:28.728Z,9.77
2019-02-25T13:57:58.299Z,9.47
2019-02-25T14:00:28.613Z,9.77
2019-02-25T14:03:00.585Z,10.13
2019-02-25T14:05:31.485Z,9.63
2019-02-25T14:08:02.324Z,10.27
2019-02-25T14:10:31.436Z,12.13
2019-02-25T14:13:01.526Z,9.63
2019-02-25T14:15:30.528Z,11.00
2019-02-25T14:17:59.670Z,9.00
2019-02-25T14:20:29.157Z,10.00
2019-02-25T14:23:00.618Z,9.33
2019-02-25T14:25:31.286Z,10.23
2019-02-25T14:28:02.702Z,9.70
2019-02-25T14:30:33.537Z,10.83
2019-02-25T14:33:02.410Z,8.83
2019-02-25T14:35:34.794Z,11.63
2019-02-25T14:38:10.077Z,9.00
2019-02-25T14:40:39.676Z,7.57
2019-02-25T14:43:10.535Z,7.97
2019-02-25T14:45:42.038Z,7.47
2019-02-25T14:48:12.557Z,8.20
2019-02-25T14:50:41.774Z,7.87
2019-02-25T14:53:14.129Z,8.53
2019-02-25T14:55:42.864Z,9.67
2019-02-25T14:58:17.532Z,9.50
2019-02-25T15:00:46.753Z,8.87
2019-02-25T15:03:24.781Z,9.30
2019-02-25T15:05:57.076Z,8.27
2019-02-25T15:08:28.268Z,7.47
2019-02-25T15:11:00.071Z,8.57
2019-02-25T15:13:28.139Z,7.50
2019-02-25T15:15:58.728Z,10.33
2019-02-25T15:18:29.060Z,11.47
2019-02-25T15:21:02.089Z,11.00
2019-02-25T15:23:30.448Z,10.23
2019-02-25T15:26:06.325Z,10.47
2019-02-25T15:28:32.746Z,9.30
2019-02-25T15:31:03.943Z,12.80
2019-02-25T15:33:33.637Z,8.47
2019-02-25T15:36:06.324Z,8.77
2019-02-25T15:38:37.055Z,8.50
2019-02-25T15:41:09.036Z,7.83
2019-02-25T15:43:40.425Z,10.63
2019-02-25T15:46:10.418Z,9.67
2019-02-25T15:48:41.491Z,8.33
2019-02-25T15:51:13.689Z,9.30
2019-02-25T15:53:46.206Z,9.33
2019-02-25T15:56:17.265Z,8.00
2019-02-25T15:58:50.524Z,8.57
2019-02-25T16:01:19.912Z,11.60
2019-02-25T16:03:49.049Z,8.63
2019-02-25T16:06:19.193Z,9.33
2019-02-25T16:08:52.248Z,7.73
2019-02-25T16:11:25.671Z,9.73
2019-02-25T16:13:57.820Z,7.20
2019-02-25T16:16:26.728Z,10.43
2019-02-25T16:18:56.393Z,11.00
2019-02-25T16:21:27.276Z,9.60
2019-02-25T16:23:59.584Z,7.57
2019-02-25T16:26:27.606Z,9.30
2019-02-25T16:28:58.841Z,9.47
2019-02-25T16:31:29.121Z,8.93
2019-02-25T16:33:59.813Z,12.50
2019-02-25T16:36:37.049Z,9.57
2019-02-25T16:39:05.338Z,8.50
2019-02-25T16:41:34.668Z,10.37
2019-02-25T16:44:06.765Z,8.27
2019-02-25T16:46:38.756Z,7.70
2019-02-25T16:49:06.651Z,8.03
2019-02-25T16:51:37.582Z,8.53
2019-02-25T16:54:11.073Z,9.30
2019-02-25T16:56:38.633Z,8.87
2019-02-25T16:59:10.861Z,8.87
2019-02-25T17:01:39.785Z,10.53
2019-02-25T17:04:11.723Z,13.63
2019-02-25T17:06:40.831Z,9.80
2019-02-25T17:09:11.844Z,12.20
2019-02-25T17:11:42.259Z,11.27
2019-02-25T17:14:12.471Z,15.50
2019-02-25T17:16:41.670Z,13.37
2019-02-25T17:19:10.790Z,12.60
2019-02-25T17:21:43.325Z,10.40
2019-02-25T17:24:16.832Z,11.87
2019-02-25T17:26:46.848Z,10.80
2019-02-25T17:29:16.209Z,8.50
2019-02-25T17:31:48.429Z,9.80
2019-02-25T17:34:19.172Z,9.60
2019-02-25T17:36:52.793Z,8.57
2019-02-25T17:39:22.849Z,10.93
2019-02-25T17:41:57.191Z,14.10
2019-02-25T17:44:32.029Z,16.77
2019-02-25T17:47:06.660Z,14.30
2019-02-25T17:49:38.050Z,12.73
2019-02-25T17:52:08.084Z,11.50
2019-02-25T17:54:39.907Z,13.20
2019-02-25T17:57:11.996Z,11.23
2019-02-25T17:59:44.181Z,24.37
2019-02-25T18:02:19.008Z,16.90
2019-02-25T18:04:50.992Z,16.57
2019-02-25T18:07:24.161Z,17.60
2019-02-25T18:10:01.198Z,12.97
2019-02-25T18:12:31.880Z,13.27
2019-02-25T18:15:03.585Z,16.90
2019-02-25T18:17:32.888Z,14.77
2019-02-25T18:20:02.077Z,14.20
2019-02-25T18:22:32.602Z,12.33
2019-02-25T18:25:04.223Z,14.33
2019-02-25T18:27:35.180Z,18.60
2019-02-25T18:30:16.483Z,19.43
2019-02-25T18:32:46.173Z,16.80
2019-02-25T18:35:21.151Z,15.27
2019-02-25T18:37:53.217Z,17.17
2019-02-25T18:40:22.953Z,12.10
2019-02-25T18:42:52.872Z,13.57
2019-02-25T18:45:22.754Z,12.20
2019-02-25T18:48:00.470Z,13.30
2019-02-25T18:50:33.073Z,19.23
2019-02-25T18:53:02.492Z,20.00
2019-02-25T18:55:36.998Z,15.13
2019-02-25T18:58:10.131Z,20.67
2019-02-25T19:00:42.496Z,15.73
2019-02-25T19:03:13.141Z,19.93
2019-02-25T19:05:42.500Z,17.03
2019-02-25T19:08:17.083Z,16.57
2019-02-25T19:10:48.100Z,17.97
2019-02-25T19:13:20.182Z,13.57
2019-02-25T19:15:52.537Z,12.60
2019-02-25T19:18:21.736Z,16.20
2019-02-25T19:20:50.977Z,17.47
2019-02-25T19:23:22.680Z,14.27
2019-02-25T19:25:52.090Z,11.33
2019-02-25T19:28:25.658Z,14.43
2019-02-25T19:30:55.431Z,13.97
2019-02-25T19:33:26.351Z,15.87
2019-02-25T19:35:58.152Z,13.80
2019-02-25T19:38:26.431Z,17.23
2019-02-25T19:40:57.547Z,23.33
2019-02-25T19:43:37.648Z,15.57
2019-02-25T19:46:08.735Z,18.53
2019-02-25T19:48:38.488Z,15.53
2019-02-25T19:51:09.036Z,15.33
2019-02-25T19:53:40.561Z,13.63
2019-02-25T19:56:11.036Z,14.67
2019-02-25T19:58:42.020Z,17.87
2019-02-25T20:01:11.740Z,12.13
2019-02-25T20:03:43.368Z,14.10
2019-02-25T20:06:16.714Z,12.37
2019-02-25T20:08:51.122Z,16.37
2019-02-25T20:11:21.667Z,13.97
2019-02-25T20:16:29.767Z,10.37
2019-02-25T20:18:58.610Z,11.13
2019-02-25T20:21:29.305Z,16.03
2019-02-25T20:26:33.469Z,14.83
2019-02-25T20:29:06.259Z,14.27
2019-02-25T20:31:36.769Z,15.40
2019-02-25T20:34:11.751Z,12.47
2019-02-25T20:36:42.047Z,15.00
2019-02-25T20:39:11.423Z,10.00
2019-02-25T20:41:40.868Z,8.67
2019-02-25T20:44:11.826Z,10.23
2019-02-25T20:46:41.089Z,9.77
2019-02-25T20:49:14.229Z,7.63
2019-02-25T20:51:43.477Z,8.10
2019-02-25T20:54:17.981Z,7.77
2019-02-25T20:56:56.396Z,6.23
2019-02-25T20:59:24.017Z,4.53
2019-02-25T21:01:54.225Z,4.83
2019-02-25T21:04:23.552Z,4.50
2019-02-25T21:06:55.347Z,10.27
2019-02-25T21:09:26.772Z,13.13
2019-02-25T21:11:56.767Z,10.03
2019-02-25T21:14:29.540Z,9.73
2019-02-25T21:16:59.974Z,9.33
2019-02-25T21:19:27.956Z,8.83
2019-02-25T21:21:59.675Z,6.60
2019-02-25T21:24:29.041Z,4.07
2019-02-25T21:27:03.576Z,1.60
2019-02-25T21:29:34.877Z,1.50
2019-02-25T21:32:04.534Z,1.70
2019-02-25T21:34:34.008Z,1.43
2019-02-25T21:37:03.233Z,1.43
2019-02-25T21:39:34.416Z,2.43
2019-02-25T21:42:06.219Z,2.10
2019-02-25T21:44:34.567Z,1.60
2019-02-25T21:47:06.867Z,6.33
2019-02-25T21:49:38.182Z,3.63
2019-02-25T21:52:10.855Z,3.93
2019-02-25T21:54:40.124Z,2.50
2019-02-25T21:57:09.721Z,4.27
2019-02-25T21:59:41.083Z,5.73
2019-02-25T22:02:10.483Z,5.63
2019-02-25T22:04:42.410Z,3.70
2019-02-25T22:07:10.483Z,5.67
2019-02-25T22:09:41.908Z,3.40
2019-02-25T22:12:10.364Z,3.07
2019-02-25T22:14:41.178Z,5.40
2019-02-25T22:17:10.383Z,7.00
2019-02-25T22:19:41.439Z,6.37
2019-02-25T22:22:10.963Z,4.97
2019-02-25T22:24:40.723Z,2.83
2019-02-25T22:27:11.825Z,2.60
2019-02-25T22:29:41.270Z,3.37
2019-02-25T22:32:11.925Z,3.70
2019-02-25T22:34:42.967Z,2.37
2019-02-25T22:37:14.501Z,3.53
2019-02-25T22:40:02.163Z,2.90
2019-02-25T22:42:33.419Z,2.30
2019-02-25T22:45:02.558Z,2.60
2019-02-25T22:47:35.132Z,2.67
2019-02-25T22:50:08.532Z,4.20
2019-02-25T22:52:37.832Z,2.57
2019-02-25T22:55:12.917Z,3.10
2019-02-25T22:57:46.680Z,2.40
2019-02-25T23:00:30.817Z,2.70
2019-02-25T23:03:00.929Z,1.93
2019-02-25T23:05:31.328Z,2.70
2019-02-25T23:08:00.773Z,2.23
2019-02-25T23:10:31.712Z,1.70
2019-02-25T23:13:03.931Z,2.37
2019-02-25T23:15:33.813Z,4.77
2019-02-25T23:18:05.609Z,3.60
2019-02-25T23:20:34.451Z,3.80
2019-02-25T23:23:07.251Z,3.50
2019-02-25T23:25:36.410Z,2.13
2019-02-25T23:28:05.489Z,1.93
2019-02-25T23:30:40.068Z,2.00
2019-02-25T23:33:11.895Z,2.60
2019-02-25T23:35:45.194Z,2.10
2019-02-25T23:38:25.989Z,2.80
2019-02-25T23:40:55.308Z,2.87
2019-02-25T23:43:24.348Z,2.37
2019-02-25T23:45:58.007Z,3.47
2019-02-25T23:48:32.935Z,5.10
2019-02-25T23:50:59.655Z,5.37
2019-02-25T23:53:31.087Z,5.37
2019-02-25T23:56:00.025Z,3.43
2019-02-25T23:58:29.524Z,3.27
